Time;durP1;ratioP1;P1;durP2;ratioP2;P2;SDS_P1;SDS_P2;PMS_P1;PMS_P2;Temp;Humidity;BMP_temperature;BMP_pressure;BME280_temperature;BME280_humidity;BME280_pressure;Samples;Min_cycle;Max_cycle;Signal;HPM_P1;HPM_P2
2023/06/23 00:00:25;;;;;;;19.10;13.98;;;;;;;26.89;60.86;99027.66;4359514;32;34656;-88
2023/06/23 00:02:53;;;;;;;15.95;14.00;;;;;;;26.89;60.73;99017.00;4346296;32;34011;-85
2023/06/23 00:05:21;;;;;;;15.43;13.55;;;;;;;26.93;61.02;99023.88;4359634;32;35015;-85
2023/06/23 00:07:48;;;;;;;16.62;12.95;;;;;;;26.82;61.11;99019.19;4359456;32;34332;-86
2023/06/23 00:10:16;;;;;;;19.87;14.00;;;;;;;27.02;60.60;99011.88;4359721;32;33456;-86
2023/06/23 00:12:43;;;;;;;17.73;14.35;;;;;;;26.98;60.23;99021.84;4358965;32;33689;-85
2023/06/23 00:15:13;;;;;;;17.20;14.13;;;;;;;26.80;60.81;99017.53;4359403;32;33642;-84
2023/06/23 00:17:44;;;;;;;18.30;13.60;;;;;;;26.92;60.58;99016.84;4359302;32;35157;-88
2023/06/23 00:20:15;;;;;;;16.48;13.82;;;;;;;27.17;59.56;99011.03;4346203;32;34432;-89
2023/06/23 00:22:43;;;;;;;16.80;13.43;;;;;;;26.96;60.21;99006.91;4346153;32;33913;-85
2023/06/23 00:25:12;;;;;;;19.37;13.55;;;;;;;26.97;60.05;98998.81;4359235;32;35025;-85
2023/06/23 00:27:41;;;;;;;17.73;13.73;;;;;;;26.92;60.15;99008.88;4346269;32;34159;-86
2023/06/23 00:30:11;;;;;;;17.80;13.30;;;;;;;27.00;59.88;99019.94;4345993;32;33600;-83
2023/06/23 00:32:40;;;;;;;17.12;13.55;;;;;;;26.89;60.17;99023.19;4342558;32;33532;-86
2023/06/23 00:35:08;;;;;;;16.35;13.38;;;;;;;26.84;60.33;99013.78;4345282;32;34693;-84
2023/06/23 00:37:39;;;;;;;18.08;12.27;;;;;;;26.94;60.12;99014.97;4359255;32;34245;-88
2023/06/23 00:40:10;;;;;;;17.12;13.50;;;;;;;27.02;59.70;99018.06;4359292;32;33295;-86
2023/06/23 00:42:48;;;;;;;17.45;12.68;;;;;;;26.93;59.97;99027.44;4359392;32;33738;-86
2023/06/23 00:45:15;;;;;;;19.37;13.25;;;;;;;26.99;59.99;99022.69;4347579;32;34020;-85
2023/06/23 00:47:44;;;;;;;16.80;12.80;;;;;;;27.05;59.77;99028.53;4360992;32;34137;-86
2023/06/23 00:50:17;;;;;;;15.88;12.68;;;;;;;27.03;59.75;99033.06;4347884;32;33751;-87
2023/06/23 00:52:52;;;;;;;15.65;13.57;;;;;;;27.03;59.42;99030.41;4360704;32;34752;-84
2023/06/23 00:55:25;;;;;;;17.95;12.93;;;;;;;26.76;60.41;99022.19;4359634;32;34834;-86
2023/06/23 00:57:54;;;;;;;16.52;14.05;;;;;;;26.80;60.35;99012.22;4347619;32;32581;-86
2023/06/23 01:00:24;;;;;;;15.68;13.77;;;;;;;26.64;60.99;99005.09;4361072;32;33801;-84
2023/06/23 01:02:54;;;;;;;18.83;14.77;;;;;;;26.70;60.65;98995.91;4353565;32;34891;-84
2023/06/23 01:05:26;;;;;;;18.42;14.15;;;;;;;26.56;61.04;98991.38;4361134;32;33890;-86
2023/06/23 01:08:06;;;;;;;17.15;14.43;;;;;;;26.52;61.04;98986.28;4359535;32;34279;-85
2023/06/23 01:10:39;;;;;;;21.55;14.50;;;;;;;26.10;62.66;98990.31;4359317;32;33932;-84
2023/06/23 01:13:25;;;;;;;18.60;14.50;;;;;;;26.41;61.54;98984.22;4359262;32;34746;-84
2023/06/23 01:15:57;;;;;;;20.85;15.85;;;;;;;26.30;62.10;98991.94;4360385;32;35166;-83
2023/06/23 01:18:36;;;;;;;23.80;15.32;;;;;;;26.37;61.64;98978.22;4359812;32;34205;-86
2023/06/23 01:21:07;;;;;;;15.65;13.02;;;;;;;26.28;61.78;98964.56;4359754;32;33485;-85
2023/06/23 01:23:53;;;;;;;17.08;14.32;;;;;;;26.34;61.74;98966.91;4346143;33;35000;-86
2023/06/23 01:26:30;;;;;;;18.45;14.40;;;;;;;26.37;61.87;98983.53;4360310;32;33302;-83
2023/06/23 01:29:00;;;;;;;18.55;13.43;;;;;;;26.38;61.60;98974.59;4360590;32;34327;-90
2023/06/23 01:31:45;;;;;;;15.30;13.38;;;;;;;26.42;61.47;98976.16;4359475;32;34612;-88
2023/06/23 01:34:20;;;;;;;15.73;13.62;;;;;;;26.57;60.90;98970.97;4347564;32;33449;-85
2023/06/23 01:36:58;;;;;;;16.67;13.23;;;;;;;26.64;60.55;98970.53;4359033;32;33780;-85
2023/06/23 01:39:30;;;;;;;18.08;14.02;;;;;;;26.61;60.62;98965.37;4344209;32;34778;-89
2023/06/23 01:42:16;;;;;;;15.55;13.00;;;;;;;26.34;61.59;98964.25;4360537;32;34674;-84
2023/06/23 01:44:47;;;;;;;18.95;14.70;;;;;;;26.11;62.42;98982.28;4347036;32;34105;-85
2023/06/23 01:47:19;;;;;;;20.98;14.23;;;;;;;26.20;61.89;98981.78;4359299;32;34983;-84
2023/06/23 01:49:47;;;;;;;14.90;12.77;;;;;;;26.15;62.21;98986.50;4359333;32;35048;-85
2023/06/23 01:52:16;;;;;;;18.50;13.85;;;;;;;25.98;62.82;99006.91;4359347;32;33619;-85
2023/06/23 01:54:45;;;;;;;16.42;14.23;;;;;;;26.17;62.13;99011.16;4359975;32;35504;-85
2023/06/23 01:57:14;;;;;;;16.98;14.38;;;;;;;26.01;62.80;99009.41;4359221;32;33966;-86
2023/06/23 01:59:43;;;;;;;15.27;13.57;;;;;;;26.02;62.72;99003.16;4359239;32;34195;-86
2023/06/23 02:02:12;;;;;;;15.77;13.35;;;;;;;25.92;62.91;99006.31;4359676;32;34421;-85
2023/06/23 02:04:42;;;;;;;16.08;12.90;;;;;;;26.08;62.26;99011.66;4359237;32;34342;-84
2023/06/23 02:07:11;;;;;;;19.10;13.40;;;;;;;26.06;62.18;99007.38;4347376;32;35094;-90
2023/06/23 02:09:41;;;;;;;19.67;13.50;;;;;;;26.11;61.89;99008.00;4346596;32;33821;-90
2023/06/23 02:12:10;;;;;;;15.70;13.95;;;;;;;26.13;61.73;99012.28;4359402;32;33832;-90
2023/06/23 02:14:38;;;;;;;16.35;13.75;;;;;;;25.98;62.11;99006.91;4360741;32;33906;-85
2023/06/23 02:17:10;;;;;;;19.02;14.75;;;;;;;25.88;62.51;99001.25;4359244;32;34028;-85
2023/06/23 02:19:39;;;;;;;20.12;14.60;;;;;;;25.85;62.77;98990.78;4359037;32;35105;-88
2023/06/23 02:22:09;;;;;;;20.12;14.85;;;;;;;25.79;62.72;98996.41;4344633;33;33709;-91
2023/06/23 02:24:40;;;;;;;18.98;14.75;;;;;;;25.81;62.74;98999.84;4350097;32;33718;-86
2023/06/23 02:27:09;;;;;;;15.85;14.07;;;;;;;25.54;63.71;98995.00;4359357;32;33678;-85
2023/06/23 02:29:39;;;;;;;15.82;14.13;;;;;;;25.69;63.33;98991.56;4358842;32;34053;-85
2023/06/23 02:32:08;;;;;;;15.63;13.32;;;;;;;25.66;63.39;99002.31;4359091;32;32314;-86
2023/06/23 02:34:37;;;;;;;16.27;13.88;;;;;;;25.73;63.11;98998.41;4360303;32;34245;-91
2023/06/23 02:37:08;;;;;;;15.77;13.93;;;;;;;25.64;63.29;99008.63;4358345;32;33374;-86
2023/06/23 02:39:40;;;;;;;17.90;13.62;;;;;;;25.53;63.76;99001.22;4355382;32;34096;-85
2023/06/23 02:42:12;;;;;;;20.70;14.77;;;;;;;25.46;64.04;98998.03;4357364;32;33531;-84
2023/06/23 02:44:48;;;;;;;17.58;14.52;;;;;;;25.46;64.19;98999.84;4356229;32;34826;-84
2023/06/23 02:47:19;;;;;;;18.15;14.23;;;;;;;25.61;63.71;98999.06;4358991;32;33337;-84
2023/06/23 02:49:51;;;;;;;16.17;14.18;;;;;;;25.57;63.35;98992.19;4358577;32;35003;-83
2023/06/23 02:52:20;;;;;;;18.77;14.40;;;;;;;25.69;62.96;98985.38;4360614;32;33973;-84
2023/06/23 02:54:49;;;;;;;18.40;14.05;;;;;;;25.55;63.35;98991.41;4346748;32;34065;-83
2023/06/23 02:57:19;;;;;;;15.98;14.02;;;;;;;25.56;63.33;98990.44;4346728;32;34177;-84
2023/06/23 02:59:50;;;;;;;15.40;13.10;;;;;;;25.58;63.26;98983.28;4346583;32;33782;-84
2023/06/23 03:02:22;;;;;;;19.10;14.60;;;;;;;25.75;62.78;98989.50;4347345;32;34213;-84
2023/06/23 03:04:50;;;;;;;17.25;13.65;;;;;;;25.48;63.60;98993.50;4346365;32;33854;-85
2023/06/23 03:07:18;;;;;;;17.87;13.57;;;;;;;25.43;63.82;98994.69;4360147;32;33339;-86
2023/06/23 03:09:46;;;;;;;18.12;13.60;;;;;;;25.46;63.76;98997.19;4358280;32;34277;-83
2023/06/23 03:12:13;;;;;;;21.00;14.38;;;;;;;25.58;63.28;98998.34;4358691;32;33329;-86
2023/06/23 03:14:43;;;;;;;17.37;14.15;;;;;;;25.53;63.39;99003.03;4359625;32;34974;-90
2023/06/23 03:17:22;;;;;;;16.17;14.45;;;;;;;25.52;63.28;99004.81;4360054;32;34241;-87
2023/06/23 03:19:55;;;;;;;16.05;13.80;;;;;;;25.47;63.65;99012.16;4334183;32;33407;-87
2023/06/23 03:22:33;;;;;;;15.88;12.52;;;;;;;25.44;64.06;99009.66;4346643;32;33630;-88
2023/06/23 03:25:05;;;;;;;17.30;12.88;;;;;;;25.47;63.98;99002.41;4334358;32;34701;-85
2023/06/23 03:27:36;;;;;;;14.82;13.10;;;;;;;25.46;63.99;99005.16;4347176;32;33853;-85
2023/06/23 03:30:14;;;;;;;15.85;13.43;;;;;;;25.59;63.53;99014.19;4346326;32;34142;-87
2023/06/23 03:32:43;;;;;;;19.00;13.07;;;;;;;25.44;64.22;99022.94;4341347;32;33809;-87
2023/06/23 03:35:14;;;;;;;15.95;13.20;;;;;;;25.59;63.94;99026.63;4345858;32;33659;-84
2023/06/23 03:37:50;;;;;;;17.25;13.57;;;;;;;25.63;63.57;99028.16;4346238;32;35031;-86
2023/06/23 03:40:20;;;;;;;15.70;12.02;;;;;;;25.62;63.79;99035.28;4346536;32;34044;-87
2023/06/23 03:42:58;;;;;;;16.87;13.77;;;;;;;25.72;63.49;99025.91;4345140;32;34398;-85
2023/06/23 03:45:27;;;;;;;17.37;12.70;;;;;;;25.60;64.18;99028.31;4357248;32;33938;-86
2023/06/23 03:48:02;;;;;;;16.10;12.95;;;;;;;25.79;63.43;99025.63;4359101;32;34984;-85
2023/06/23 03:50:33;;;;;;;18.47;12.73;;;;;;;25.79;63.82;99017.66;4360090;32;34252;-87
2023/06/23 03:53:01;;;;;;;16.23;13.02;;;;;;;25.59;63.75;99010.69;4346562;32;34443;-86
2023/06/23 03:55:31;;;;;;;15.60;12.88;;;;;;;25.86;63.29;99009.28;4346952;32;33726;-90
2023/06/23 03:58:02;;;;;;;19.02;12.52;;;;;;;26.00;63.14;99029.81;4345940;32;33863;-87
2023/06/23 04:00:32;;;;;;;18.25;11.90;;;;;;;26.18;62.80;99030.66;4346477;32;34021;-86
2023/06/23 04:03:01;;;;;;;20.02;13.13;;;;;;;26.16;62.89;99033.37;4346465;32;34492;-87
2023/06/23 04:05:30;;;;;;;17.52;11.90;;;;;;;26.22;62.84;99037.53;4360043;32;34872;-91
2023/06/23 04:08:03;;;;;;;14.82;12.50;;;;;;;26.48;62.09;99044.12;4345787;32;35147;-90
2023/06/23 04:10:33;;;;;;;16.67;12.02;;;;;;;26.49;61.70;99042.31;4346803;32;33806;-86
2023/06/23 04:13:01;;;;;;;17.02;12.55;;;;;;;26.43;61.01;99035.50;4334383;32;33401;-90
2023/06/23 04:15:29;;;;;;;19.08;12.82;;;;;;;25.87;62.31;99028.72;4348277;32;33924;-88
2023/06/23 04:17:58;;;;;;;14.55;12.10;;;;;;;25.94;62.76;99036.28;4345974;32;34107;-92
2023/06/23 04:20:26;;;;;;;16.60;12.88;;;;;;;26.36;61.39;99034.09;4346115;32;34156;-89
2023/06/23 04:22:55;;;;;;;17.90;11.85;;;;;;;26.48;60.99;99037.91;4346418;32;33837;-85
2023/06/23 04:25:24;;;;;;;18.37;12.45;;;;;;;26.66;59.72;99042.25;4346427;32;34641;-86
2023/06/23 04:27:57;;;;;;;15.38;11.55;;;;;;;26.88;59.21;99026.81;4345677;32;35046;-88
2023/06/23 04:30:27;;;;;;;16.25;12.13;;;;;;;26.86;59.76;99025.19;4346234;32;34333;-89
2023/06/23 04:32:55;;;;;;;16.95;10.70;;;;;;;27.02;59.34;99028.69;4346313;32;34341;-88
2023/06/23 04:35:22;;;;;;;16.95;11.63;;;;;;;27.31;58.45;99026.19;4346070;32;33664;-86
2023/06/23 04:38:00;;;;;;;18.77;12.13;;;;;;;27.44;57.78;99031.66;4359464;32;33953;-86
2023/06/23 04:40:46;;;;;;;15.10;11.80;;;;;;;27.49;57.27;99025.09;4346173;32;34253;-85
2023/06/23 04:43:17;;;;;;;16.27;11.93;;;;;;;27.73;56.63;99016.59;4334423;32;33582;-85
2023/06/23 04:45:55;;;;;;;16.17;11.68;;;;;;;27.70;55.82;99016.81;4359101;32;33538;-87
2023/06/23 04:48:26;;;;;;;17.55;12.23;;;;;;;27.63;56.26;99019.81;4345905;32;34847;-89
2023/06/23 04:50:56;;;;;;;16.77;12.55;;;;;;;27.26;56.76;99014.94;4345990;32;34408;-86
2023/06/23 04:53:30;;;;;;;15.77;11.38;;;;;;;27.45;56.26;99004.09;4345979;32;34758;-85
2023/06/23 04:56:00;;;;;;;16.33;11.65;;;;;;;27.27;56.98;99012.19;4346092;32;33832;-88
2023/06/23 04:58:29;;;;;;;19.40;11.02;;;;;;;27.58;56.24;99019.25;4358987;32;33984;-85
2023/06/23 05:00:58;;;;;;;18.08;11.60;;;;;;;27.82;55.59;99021.44;4345742;32;34822;-87
2023/06/23 05:03:27;;;;;;;20.83;11.50;;;;;;;27.46;56.16;99011.13;4345233;32;33436;-85
2023/06/23 05:05:57;;;;;;;17.52;11.60;;;;;;;27.22;56.93;99008.09;4359002;32;34558;-85
2023/06/23 05:08:26;;;;;;;16.92;11.25;;;;;;;27.80;56.19;99010.84;4344695;32;35462;-85
2023/06/23 05:10:58;;;;;;;15.63;11.12;;;;;;;27.73;55.27;99016.59;4345533;32;34890;-86
2023/06/23 05:13:28;;;;;;;18.33;11.15;;;;;;;27.45;56.30;99015.59;4345793;32;34365;-84
2023/06/23 05:15:56;;;;;;;17.02;11.52;;;;;;;27.45;56.61;99007.59;4345261;32;34435;-84
2023/06/23 05:18:24;;;;;;;15.88;11.52;;;;;;;27.45;56.05;99004.94;4345584;32;34249;-84
2023/06/23 05:20:53;;;;;;;20.88;11.80;;;;;;;27.70;56.04;99008.81;4333161;32;34233;-84
2023/06/23 05:23:21;;;;;;;14.70;10.68;;;;;;;27.75;55.44;99012.94;4345596;32;34782;-84
2023/06/23 05:25:50;;;;;;;17.90;11.95;;;;;;;28.17;54.00;99023.75;4345450;32;33952;-83
2023/06/23 05:28:19;;;;;;;15.32;11.70;;;;;;;28.31;54.27;99024.59;4345988;32;34222;-84
2023/06/23 05:30:47;;;;;;;15.27;12.05;;;;;;;28.28;54.41;99021.28;4346936;32;34005;-85
2023/06/23 05:33:17;;;;;;;14.60;11.35;;;;;;;28.46;53.83;99025.50;4351228;32;34887;-85
2023/06/23 05:35:45;;;;;;;19.40;12.75;;;;;;;28.33;53.75;99022.69;4347705;32;34664;-90
2023/06/23 05:38:17;;;;;;;15.55;11.27;;;;;;;28.00;54.38;99025.66;4347801;32;34978;-91
2023/06/23 05:40:45;;;;;;;16.40;12.25;;;;;;;28.39;53.88;99018.81;4347514;32;33937;-86
2023/06/23 05:43:12;;;;;;;18.30;12.40;;;;;;;28.79;53.22;99019.81;4347117;32;34351;-86
2023/06/23 05:45:40;;;;;;;17.40;12.70;;;;;;;28.70;53.23;99022.22;4346920;32;34901;-91
2023/06/23 05:48:19;;;;;;;16.50;11.45;;;;;;;28.49;52.96;99035.09;4361025;32;34989;-89
2023/06/23 05:50:48;;;;;;;17.83;12.52;;;;;;;29.06;52.68;99025.22;4360595;32;34013;-90
2023/06/23 05:53:17;;;;;;;17.00;11.85;;;;;;;29.08;52.03;99017.94;4347451;32;33607;-85
2023/06/23 05:55:59;;;;;;;16.67;12.63;;;;;;;28.62;53.10;99012.88;4360163;32;33729;-85
2023/06/23 05:58:31;;;;;;;17.95;11.93;;;;;;;28.60;53.35;99016.59;4344532;33;34342;-90
2023/06/23 06:01:01;;;;;;;17.15;12.65;;;;;;;27.95;55.36;99016.19;4332721;33;34166;-91
2023/06/23 06:03:35;;;;;;;15.23;11.93;;;;;;;28.53;54.04;99005.47;4332758;33;33205;-86
2023/06/23 06:06:05;;;;;;;14.98;11.57;;;;;;;28.31;54.81;98999.75;4343105;32;33141;-91
2023/06/23 06:08:34;;;;;;;22.00;13.60;;;;;;;28.24;55.16;99003.75;4346952;32;34968;-86
2023/06/23 06:11:02;;;;;;;21.02;12.60;;;;;;;28.43;54.48;99015.00;4360822;32;34008;-88
2023/06/23 06:13:34;;;;;;;15.65;12.88;;;;;;;28.88;53.48;99007.69;4347460;32;33666;-86
2023/06/23 06:16:03;;;;;;;16.73;12.45;;;;;;;28.66;54.60;99002.87;4360157;32;33669;-88
2023/06/23 06:18:33;;;;;;;19.85;12.68;;;;;;;28.86;53.42;98996.25;4360848;32;33830;-91
2023/06/23 06:21:00;;;;;;;21.95;13.77;;;;;;;28.93;53.50;98991.38;4360904;32;34925;-84
2023/06/23 06:23:30;;;;;;;18.77;13.68;;;;;;;28.49;54.00;98990.62;4347219;32;33637;-85
2023/06/23 06:25:58;;;;;;;19.23;13.95;;;;;;;28.59;53.63;98989.06;4346430;32;34850;-85
2023/06/23 06:28:26;;;;;;;17.67;13.38;;;;;;;28.65;54.55;98982.50;4346899;32;33404;-84
2023/06/23 06:30:56;;;;;;;20.67;14.23;;;;;;;29.38;52.66;98975.97;4346377;32;35017;-86
2023/06/23 06:33:24;;;;;;;17.45;12.82;;;;;;;28.85;53.55;98978.53;4347062;32;33847;-87
2023/06/23 06:35:52;;;;;;;20.37;13.48;;;;;;;29.65;52.40;98978.59;4347102;32;33905;-85
2023/06/23 06:38:21;;;;;;;20.90;12.98;;;;;;;29.46;52.41;98984.31;4347178;32;34209;-85
2023/06/23 06:40:51;;;;;;;23.00;14.45;;;;;;;29.30;52.61;98973.81;4345555;32;34347;-85
2023/06/23 06:43:18;;;;;;;17.37;12.48;;;;;;;28.59;54.10;98967.72;4347311;32;34476;-84
2023/06/23 06:45:48;;;;;;;23.67;13.68;;;;;;;28.80;54.45;98964.66;4335040;32;33860;-83
2023/06/23 06:48:16;;;;;;;20.50;13.27;;;;;;;29.19;52.74;98963.84;4346933;32;33984;-84
2023/06/23 06:50:44;;;;;;;18.62;12.98;;;;;;;29.22;53.58;98957.44;4360477;32;35020;-83
2023/06/23 06:53:12;;;;;;;17.42;13.93;;;;;;;29.54;52.26;98953.44;4346627;32;34522;-84
2023/06/23 06:55:41;;;;;;;15.68;12.73;;;;;;;29.43;52.24;98963.13;4352707;32;34079;-84
2023/06/23 06:58:09;;;;;;;25.30;13.25;;;;;;;29.45;53.10;98971.91;4347016;32;34111;-88
2023/06/23 07:00:37;;;;;;;18.98;13.48;;;;;;;29.54;51.58;98982.81;4334525;32;35047;-87
2023/06/23 07:03:05;;;;;;;18.58;13.40;;;;;;;30.20;50.41;98985.47;4360071;32;33382;-87
2023/06/23 07:05:33;;;;;;;22.02;13.45;;;;;;;29.50;52.20;98986.66;4347309;32;33833;-87
2023/06/23 07:08:01;;;;;;;19.50;13.82;;;;;;;30.04;52.39;98975.84;4360795;32;33731;-87
2023/06/23 07:10:29;;;;;;;19.75;14.30;;;;;;;30.02;52.54;98982.25;4346956;32;35037;-88
2023/06/23 07:12:57;;;;;;;21.10;13.60;;;;;;;30.56;51.35;98979.28;4360489;32;33488;-87
2023/06/23 07:15:24;;;;;;;18.50;14.70;;;;;;;30.98;50.76;98975.31;4359895;32;33748;-90
2023/06/23 07:17:52;;;;;;;17.83;14.43;;;;;;;30.51;50.01;98973.44;4359182;32;33861;-84
2023/06/23 07:20:19;;;;;;;19.02;13.95;;;;;;;31.32;49.29;98970.13;4360110;32;34281;-86
2023/06/23 07:22:50;;;;;;;19.05;14.45;;;;;;;31.28;49.14;98968.62;4360393;32;33289;-86
2023/06/23 07:25:24;;;;;;;19.92;15.02;;;;;;;31.42;47.82;98970.31;4359535;32;33129;-85
2023/06/23 07:27:52;;;;;;;21.42;13.30;;;;;;;31.56;47.84;98962.06;4360136;32;35010;-86
2023/06/23 07:30:19;;;;;;;21.00;15.65;;;;;;;31.53;48.02;98962.28;4360411;32;34322;-89
2023/06/23 07:32:47;;;;;;;21.05;14.57;;;;;;;31.66;46.95;98963.03;4346877;32;34582;-86
2023/06/23 07:35:15;;;;;;;21.75;15.13;;;;;;;31.29;48.07;98964.97;4359771;32;34014;-86
2023/06/23 07:37:43;;;;;;;26.77;15.18;;;;;;;31.77;47.39;98962.22;4360108;32;34175;-83
2023/06/23 07:40:11;;;;;;;18.70;14.23;;;;;;;31.89;46.76;98963.97;4360144;32;33857;-84
2023/06/23 07:42:38;;;;;;;22.02;13.65;;;;;;;32.26;46.33;98966.41;4346940;32;34912;-83
2023/06/23 07:45:06;;;;;;;19.55;15.52;;;;;;;32.25;47.86;98964.72;4360295;32;34485;-89
2023/06/23 07:47:34;;;;;;;18.55;14.93;;;;;;;31.54;47.94;98960.47;4360237;32;33927;-88
2023/06/23 07:50:02;;;;;;;17.83;14.23;;;;;;;31.78;47.35;98961.22;4359791;32;34314;-87
2023/06/23 07:52:29;;;;;;;22.85;14.60;;;;;;;32.22;47.61;98964.97;4355174;32;34664;-86
2023/06/23 07:54:57;;;;;;;18.10;14.50;;;;;;;32.59;46.19;98956.66;4359411;32;33987;-86
2023/06/23 07:57:25;;;;;;;18.52;15.65;;;;;;;32.91;45.37;98956.69;4359998;32;34251;-89
2023/06/23 07:59:52;;;;;;;18.50;14.80;;;;;;;32.41;46.33;98959.84;4334403;32;33132;-89
2023/06/23 08:02:20;;;;;;;17.08;14.77;;;;;;;32.45;46.06;98964.00;4359899;32;34272;-90
2023/06/23 08:04:48;;;;;;;19.67;14.55;;;;;;;32.09;46.83;98969.59;4346173;32;33419;-89
2023/06/23 08:07:16;;;;;;;21.25;14.27;;;;;;;31.98;47.22;98971.28;4346614;32;34968;-89
2023/06/23 08:09:44;;;;;;;20.73;15.75;;;;;;;32.37;45.87;98963.72;4353374;32;34944;-88
2023/06/23 08:12:12;;;;;;;19.10;15.13;;;;;;;31.78;46.99;98958.53;4356288;32;34305;-87
2023/06/23 08:14:39;;;;;;;24.33;14.70;;;;;;;31.95;47.24;98955.44;4359602;32;34550;-86
2023/06/23 08:17:07;;;;;;;24.98;15.30;;;;;;;32.56;45.99;98956.91;4359855;32;33777;-84
2023/06/23 08:19:35;;;;;;;20.05;14.15;;;;;;;32.32;45.67;98968.62;4360000;32;34143;-91
2023/06/23 08:22:03;;;;;;;17.65;14.20;;;;;;;32.68;46.10;98966.63;4359898;32;34600;-90
2023/06/23 08:24:30;;;;;;;21.87;15.52;;;;;;;32.38;47.28;98959.22;4359221;32;33841;-86
2023/06/23 08:26:58;;;;;;;20.02;14.82;;;;;;;31.97;47.01;98964.25;4359744;32;33974;-86
2023/06/23 08:29:25;;;;;;;21.17;16.50;;;;;;;32.07;47.93;98960.81;4359947;32;34581;-88
2023/06/23 08:31:53;;;;;;;18.95;14.98;;;;;;;32.75;47.19;98953.56;4359687;32;33416;-85
2023/06/23 08:34:21;;;;;;;20.75;15.15;;;;;;;33.18;45.37;98962.47;4359401;32;33913;-88
2023/06/23 08:36:48;;;;;;;20.42;15.18;;;;;;;32.65;45.10;98956.16;4359224;32;34205;-85
2023/06/23 08:39:16;;;;;;;26.02;15.43;;;;;;;32.22;46.05;98965.81;4345718;32;35092;-85
2023/06/23 08:41:44;;;;;;;20.17;15.48;;;;;;;32.32;45.86;98957.87;4361872;32;34602;-85
2023/06/23 08:44:14;;;;;;;19.45;14.20;;;;;;;32.82;45.69;98963.69;4345451;32;34637;-85
2023/06/23 08:46:42;;;;;;;24.12;15.15;;;;;;;33.04;44.17;98952.06;4345571;32;33931;-85
2023/06/23 08:49:34;;;;;;;21.27;16.02;;;;;;;32.80;45.31;98956.72;4348463;32;35062;-85
2023/06/23 08:52:04;;;;;;;18.25;14.75;;;;;;;32.17;47.41;98961.81;4339120;32;33430;-84
2023/06/23 08:54:33;;;;;;;23.12;15.40;;;;;;;32.79;45.90;98953.19;4345910;32;33854;-93
2023/06/23 08:57:00;;;;;;;22.87;16.00;;;;;;;32.96;45.92;98953.66;4345779;32;34473;-85
2023/06/23 08:59:27;;;;;;;21.30;15.90;;;;;;;32.88;44.82;98954.25;4359124;32;34666;-83
2023/06/23 09:01:58;;;;;;;23.50;15.27;;;;;;;32.74;45.19;98957.25;4359058;32;33332;-90
2023/06/23 09:04:25;;;;;;;24.42;15.63;;;;;;;32.88;46.41;98965.88;4346918;32;35266;-90
2023/06/23 09:06:53;;;;;;;20.10;16.58;;;;;;;32.56;45.77;98968.50;4361492;32;33673;-84
2023/06/23 09:09:20;;;;;;;25.33;16.12;;;;;;;32.90;45.75;98971.94;4365348;32;34900;-82
2023/06/23 09:11:48;;;;;;;23.05;16.30;;;;;;;32.96;44.53;98964.37;4363234;32;33853;-96
2023/06/23 09:14:16;;;;;;;24.27;15.55;;;;;;;32.98;45.65;98967.81;4348547;32;34122;-96
2023/06/23 09:16:45;;;;;;;23.60;15.40;;;;;;;33.03;45.59;98962.91;4365094;32;34476;-82
2023/06/23 09:19:12;;;;;;;18.90;15.77;;;;;;;33.23;45.49;98972.84;4363548;32;33694;-96
2023/06/23 09:21:41;;;;;;;23.83;16.40;;;;;;;32.97;45.71;98977.72;4362075;32;35170;-82
2023/06/23 09:24:08;;;;;;;29.20;17.12;;;;;;;33.26;47.36;98977.09;4349705;32;33760;-82
2023/06/23 09:26:48;;;;;;;21.75;17.15;;;;;;;32.98;44.35;98962.44;4361954;32;33858;-90
2023/06/23 09:29:24;;;;;;;23.65;16.48;;;;;;;32.97;45.84;98972.34;4360698;32;34204;-84
2023/06/23 09:31:55;;;;;;;27.62;17.27;;;;;;;32.72;46.87;98970.78;4350815;32;34106;-84
2023/06/23 09:34:29;;;;;;;21.10;16.42;;;;;;;33.15;46.34;98973.50;4346981;32;34671;-84
2023/06/23 09:37:09;;;;;;;23.25;16.92;;;;;;;32.96;47.83;98969.75;4350140;32;34234;-96
2023/06/23 09:39:38;;;;;;;23.45;16.48;;;;;;;32.52;47.86;98976.94;4346233;32;33060;-96
2023/06/23 09:42:13;;;;;;;26.52;16.90;;;;;;;32.79;47.64;98985.41;4366016;32;33811;-95
2023/06/23 09:44:42;;;;;;;22.45;15.98;;;;;;;32.48;47.88;98981.69;4364846;32;34271;-85
2023/06/23 09:47:09;;;;;;;20.77;15.77;;;;;;;32.34;48.39;98974.69;4350722;32;34026;-85
2023/06/23 09:49:42;;;;;;;21.35;16.80;;;;;;;32.39;48.65;98988.63;4363384;32;33984;-86
2023/06/23 09:52:12;;;;;;;24.15;16.50;;;;;;;32.85;46.89;98990.28;4353203;32;33460;-84
2023/06/23 09:54:41;;;;;;;20.70;15.57;;;;;;;32.57;47.85;98990.81;4362121;32;34151;-85
2023/06/23 09:57:12;;;;;;;20.62;15.95;;;;;;;32.92;46.62;98999.53;4347410;32;34829;-85
2023/06/23 09:59:41;;;;;;;25.42;16.12;;;;;;;33.07;47.87;99004.63;4348408;32;34149;-85
2023/06/23 10:02:20;;;;;;;24.80;16.42;;;;;;;33.04;46.76;98996.84;4376364;32;33493;-90
2023/06/23 10:04:49;;;;;;;26.65;16.55;;;;;;;33.04;47.38;98999.53;4377026;32;34578;-84
2023/06/23 10:07:20;;;;;;;20.37;15.63;;;;;;;32.87;46.51;98993.69;4376158;32;33778;-85
2023/06/23 10:09:49;;;;;;;21.37;15.68;;;;;;;32.62;49.12;98992.16;4364318;32;34190;-85
2023/06/23 10:12:27;;;;;;;23.80;15.13;;;;;;;32.27;47.72;98992.25;4361567;32;33624;-85
2023/06/23 10:14:57;;;;;;;22.33;15.60;;;;;;;32.81;48.42;98999.56;4361139;32;34033;-85
2023/06/23 10:17:24;;;;;;;17.85;15.93;;;;;;;32.93;47.57;98993.22;4337067;32;34263;-84
2023/06/23 10:19:54;;;;;;;18.75;16.10;;;;;;;32.56;46.50;98989.13;4361522;32;34341;-83
2023/06/23 10:22:22;;;;;;;21.65;16.83;;;;;;;32.67;46.60;98986.41;4348350;32;33805;-84
2023/06/23 10:24:51;;;;;;;23.15;15.73;;;;;;;32.17;47.66;98984.09;4361438;32;33638;-84
2023/06/23 10:27:24;;;;;;;24.77;16.55;;;;;;;32.90;48.09;98993.44;4350152;32;34128;-84
2023/06/23 10:29:54;;;;;;;22.98;16.20;;;;;;;32.77;46.80;98992.75;4363413;32;35035;-82
2023/06/23 10:32:30;;;;;;;24.35;17.10;;;;;;;32.93;47.44;98987.84;4337110;32;33014;-84
2023/06/23 10:35:05;;;;;;;23.08;16.55;;;;;;;32.58;47.93;98993.38;4351632;32;34829;-84
2023/06/23 10:37:32;;;;;;;16.42;14.63;;;;;;;32.79;47.50;98980.03;4346538;33;34144;-91
2023/06/23 10:40:19;;;;;;;22.37;16.80;;;;;;;33.37;45.88;98985.09;4363988;32;33960;-85
2023/06/23 10:42:52;;;;;;;27.02;16.42;;;;;;;32.85;46.79;98984.91;4351803;32;34084;-96
2023/06/23 10:45:19;;;;;;;25.45;17.25;;;;;;;33.33;45.88;98981.81;4362835;32;33441;-85
2023/06/23 10:47:47;;;;;;;21.40;15.90;;;;;;;32.66;47.51;98973.97;4349959;32;34787;-85
2023/06/23 10:50:18;;;;;;;24.70;17.05;;;;;;;33.23;45.54;98972.00;4337739;32;34050;-85
2023/06/23 10:52:45;;;;;;;24.27;16.98;;;;;;;32.81;46.46;98971.87;4362489;32;34529;-85
2023/06/23 10:55:34;;;;;;;23.95;16.20;;;;;;;33.13;45.66;98964.69;4347398;32;33973;-84
2023/06/23 10:58:18;;;;;;;19.08;14.48;;;;;;;33.36;44.91;98961.91;4347286;32;34504;-84
2023/06/23 11:00:57;;;;;;;22.58;14.30;;;;;;;33.76;45.43;98970.16;4348482;32;34120;-85
2023/06/23 11:03:38;;;;;;;20.25;14.73;;;;;;;32.82;44.90;98968.19;4349322;32;34442;-85
2023/06/23 11:06:07;;;;;;;22.98;14.02;;;;;;;33.29;43.38;98969.63;4362717;32;34059;-88
2023/06/23 11:08:40;;;;;;;15.98;12.35;;;;;;;33.13;43.12;98963.84;4342868;32;35012;-85
2023/06/23 11:11:11;;;;;;;21.87;14.27;;;;;;;32.97;41.21;98960.75;4359365;32;34328;-85
2023/06/23 11:13:47;;;;;;;22.33;12.05;;;;;;;33.52;43.27;98961.47;4367974;32;33646;-94
2023/06/23 11:16:17;;;;;;;18.45;12.80;;;;;;;33.56;39.64;98963.78;4371357;32;34077;-96
2023/06/23 11:18:57;;;;;;;22.23;13.48;;;;;;;33.97;41.69;98953.97;4366283;32;35246;-88
2023/06/23 11:21:30;;;;;;;18.65;14.25;;;;;;;33.80;41.24;98955.44;4349551;32;34452;-86
2023/06/23 11:24:16;;;;;;;21.10;13.98;;;;;;;33.91;43.13;98951.84;4356538;32;33855;-85
2023/06/23 11:26:52;;;;;;;17.75;13.02;;;;;;;33.88;43.36;98958.31;4349064;32;34921;-85
2023/06/23 11:29:21;;;;;;;19.70;13.80;;;;;;;33.93;43.39;98952.53;4358015;32;34177;-89
2023/06/23 11:32:04;;;;;;;27.42;14.13;;;;;;;33.98;43.15;98946.75;4360213;32;34848;-83